sensor_id;sensor_type;location;lat;lon;timestamp;pressure;altitude;pressure_sealevel;temperature;humidity
64076;BME280;50327;51.328;12.324;2023-01-27T00:00:04;53185.81;;;-144.47;96.89
64076;BME280;50327;51.328;12.324;2023-01-27T00:02:31;53197.72;;;-144.47;96.91
64076;BME280;50327;51.328;12.324;2023-01-27T00:04:56;53158.00;;;-144.47;97.36
64076;BME280;50327;51.328;12.324;2023-01-27T00:07:21;53187.78;;;-144.47;96.98
64076;BME280;50327;51.328;12.324;2023-01-27T00:09:47;53201.69;;;-144.47;97.38
64076;BME280;50327;51.328;12.324;2023-01-27T00:12:21;53187.78;;;-144.47;98.16
64076;BME280;50327;51.328;12.324;2023-01-27T00:15:07;53195.75;;;-144.47;98.20
64076;BME280;50327;51.328;12.324;2023-01-27T00:17:33;53187.78;;;-144.47;98.50
64076;BME280;50327;51.328;12.324;2023-01-27T00:19:58;53195.75;;;-144.47;98.20
64076;BME280;50327;51.328;12.324;2023-01-27T00:22:24;53185.81;;;-144.47;98.04
64076;BME280;50327;51.328;12.324;2023-01-27T00:25:08;53148.06;;;-144.47;98.14
64076;BME280;50327;51.328;12.324;2023-01-27T00:27:34;53199.72;;;-144.47;98.10
64076;BME280;50327;51.328;12.324;2023-01-27T00:29:59;53181.84;;;-144.47;98.53
64076;BME280;50327;51.328;12.324;2023-01-27T00:32:25;53189.78;;;-144.47;98.83
64076;BME280;50327;51.328;12.324;2023-01-27T00:35:09;53193.75;;;-144.47;99.33
64076;BME280;50327;51.328;12.324;2023-01-27T00:37:35;53193.75;;;-144.47;99.39
64076;BME280;50327;51.328;12.324;2023-01-27T00:40:00;53189.78;;;-144.47;99.48
64076;BME280;50327;51.328;12.324;2023-01-27T00:42:26;53183.81;;;-144.47;99.75
64076;BME280;50327;51.328;12.324;2023-01-27T00:44:51;53187.78;;;-144.47;100.00
64076;BME280;50327;51.328;12.324;2023-01-27T00:47:35;53213.63;;;-144.47;100.00
64076;BME280;50327;51.328;12.324;2023-01-27T00:50:00;53183.81;;;-144.47;100.00
64076;BME280;50327;51.328;12.324;2023-01-27T00:52:26;53189.78;;;-144.47;100.00
64076;BME280;50327;51.328;12.324;2023-01-27T00:54:51;53217.59;;;-144.47;100.00
64076;BME280;50327;51.328;12.324;2023-01-27T00:57:16;53203.69;;;-144.47;100.00
64076;BME280;50327;51.328;12.324;2023-01-27T00:59:42;53203.69;;;-144.47;100.00
64076;BME280;50327;51.328;12.324;2023-01-27T01:02:07;53177.88;;;-144.47;99.90
64076;BME280;50327;51.328;12.324;2023-01-27T01:04:32;53191.78;;;-144.47;99.89
64076;BME280;50327;51.328;12.324;2023-01-27T01:06:58;53193.75;;;-144.47;100.00
64076;BME280;50327;51.328;12.324;2023-01-27T01:09:23;53193.75;;;-144.47;100.00
64076;BME280;50327;51.328;12.324;2023-01-27T01:11:49;53187.78;;;-144.47;100.00
64076;BME280;50327;51.328;12.324;2023-01-27T01:14:14;53193.75;;;-144.47;99.93
64076;BME280;50327;51.328;12.324;2023-01-27T01:16:39;53215.59;;;-144.47;99.92
64076;BME280;50327;51.328;12.324;2023-01-27T01:19:05;53156.00;;;-144.47;99.85
64076;BME280;50327;51.328;12.324;2023-01-27T01:21:30;53187.78;;;-144.47;99.77
64076;BME280;50327;51.328;12.324;2023-01-27T01:23:55;53191.78;;;-144.47;99.74
64076;BME280;50327;51.328;12.324;2023-01-27T01:26:21;53197.72;;;-144.47;99.75
64076;BME280;50327;51.328;12.324;2023-01-27T01:28:46;53209.66;;;-144.47;99.88
64076;BME280;50327;51.328;12.324;2023-01-27T01:31:14;53177.88;;;-144.47;99.92
64076;BME280;50327;51.328;12.324;2023-01-27T01:33:40;53241.44;;;-144.47;100.00
64076;BME280;50327;51.328;12.324;2023-01-27T01:36:08;53193.75;;;-144.47;100.00
64076;BME280;50327;51.328;12.324;2023-01-27T01:38:34;53205.66;;;-144.47;100.00
64076;BME280;50327;51.328;12.324;2023-01-27T01:41:00;53189.78;;;-144.47;100.00
64076;BME280;50327;51.328;12.324;2023-01-27T01:43:25;53225.53;;;-144.47;99.59
64076;BME280;50327;51.328;12.324;2023-01-27T01:45:57;53185.81;;;-144.47;99.45
64076;BME280;50327;51.328;12.324;2023-01-27T01:51:10;53181.84;;;-144.47;98.29
64076;BME280;50327;51.328;12.324;2023-01-27T01:53:44;53191.78;;;-144.47;98.42
64076;BME280;50327;51.328;12.324;2023-01-27T01:56:21;53201.69;;;-144.47;98.51
64076;BME280;50327;51.328;12.324;2023-01-27T01:58:47;53195.75;;;-144.47;98.25
64076;BME280;50327;51.328;12.324;2023-01-27T02:01:14;53217.59;;;-144.47;98.30
64076;BME280;50327;51.328;12.324;2023-01-27T02:03:43;53189.78;;;-144.47;98.07
64076;BME280;50327;51.328;12.324;2023-01-27T02:06:10;53219.56;;;-144.47;97.75
64076;BME280;50327;51.328;12.324;2023-01-27T02:08:41;53189.78;;;-144.47;97.20
64076;BME280;50327;51.328;12.324;2023-01-27T02:11:08;53195.75;;;-144.47;97.00
64076;BME280;50327;51.328;12.324;2023-01-27T02:13:34;53209.66;;;-144.47;96.69
64076;BME280;50327;51.328;12.324;2023-01-27T02:15:59;53193.75;;;-144.47;96.66
64076;BME280;50327;51.328;12.324;2023-01-27T02:18:25;53193.75;;;-144.47;96.59
64076;BME280;50327;51.328;12.324;2023-01-27T02:20:52;53221.56;;;-144.47;96.80
64076;BME280;50327;51.328;12.324;2023-01-27T02:23:45;53201.69;;;-144.47;96.79
64076;BME280;50327;51.328;12.324;2023-01-27T02:26:32;53161.97;;;-144.47;97.24
64076;BME280;50327;51.328;12.324;2023-01-27T02:29:13;53183.81;;;-144.47;97.65
64076;BME280;50327;51.328;12.324;2023-01-27T02:31:39;53191.78;;;-144.47;97.73
64076;BME280;50327;51.328;12.324;2023-01-27T02:34:07;53189.78;;;-144.47;97.98
64076;BME280;50327;51.328;12.324;2023-01-27T02:36:37;53197.72;;;-144.47;97.15
64076;BME280;50327;51.328;12.324;2023-01-27T02:39:07;53193.75;;;-144.47;97.44
64076;BME280;50327;51.328;12.324;2023-01-27T02:41:40;53209.66;;;-144.47;97.67
64076;BME280;50327;51.328;12.324;2023-01-27T02:44:07;53215.59;;;-144.47;97.44
64076;BME280;50327;51.328;12.324;2023-01-27T02:46:33;53215.59;;;-144.47;97.51
64076;BME280;50327;51.328;12.324;2023-01-27T02:48:58;53195.75;;;-144.47;97.61
64076;BME280;50327;51.328;12.324;2023-01-27T02:51:24;53231.50;;;-144.47;98.06
64076;BME280;50327;51.328;12.324;2023-01-27T02:53:49;53177.88;;;-144.47;98.01
64076;BME280;50327;51.328;12.324;2023-01-27T02:56:15;53197.72;;;-144.47;98.17
64076;BME280;50327;51.328;12.324;2023-01-27T02:58:40;53199.72;;;-144.47;97.96
64076;BME280;50327;51.328;12.324;2023-01-27T03:01:06;53201.69;;;-144.47;97.18
64076;BME280;50327;51.328;12.324;2023-01-27T03:03:31;53193.75;;;-144.47;97.03
64076;BME280;50327;51.328;12.324;2023-01-27T03:05:56;53171.91;;;-144.47;97.35
64076;BME280;50327;51.328;12.324;2023-01-27T03:08:22;53217.59;;;-144.47;97.49
64076;BME280;50327;51.328;12.324;2023-01-27T03:10:52;53221.56;;;-144.47;97.21
64076;BME280;50327;51.328;12.324;2023-01-27T03:13:24;53171.91;;;-144.47;96.41
64076;BME280;50327;51.328;12.324;2023-01-27T03:15:50;53205.66;;;-144.47;96.24
64076;BME280;50327;51.328;12.324;2023-01-27T03:18:34;53187.78;;;-144.47;96.34
64076;BME280;50327;51.328;12.324;2023-01-27T03:21:02;53199.72;;;-144.47;96.27
64076;BME280;50327;51.328;12.324;2023-01-27T03:23:28;53185.81;;;-144.47;96.31
64076;BME280;50327;51.328;12.324;2023-01-27T03:25:54;53189.78;;;-144.47;96.09
64076;BME280;50327;51.328;12.324;2023-01-27T03:28:19;53209.66;;;-144.47;96.14
64076;BME280;50327;51.328;12.324;2023-01-27T03:30:44;53217.59;;;-144.47;96.17
64076;BME280;50327;51.328;12.324;2023-01-27T03:33:10;53209.66;;;-144.47;95.86
64076;BME280;50327;51.328;12.324;2023-01-27T03:35:37;53191.78;;;-144.47;96.01
64076;BME280;50327;51.328;12.324;2023-01-27T03:38:09;53195.75;;;-144.47;96.28
64076;BME280;50327;51.328;12.324;2023-01-27T03:40:55;53179.84;;;-144.47;96.40
64076;BME280;50327;51.328;12.324;2023-01-27T03:43:40;53207.66;;;-144.47;96.60
64076;BME280;50327;51.328;12.324;2023-01-27T03:46:23;53193.75;;;-144.47;96.87
64076;BME280;50327;51.328;12.324;2023-01-27T03:48:54;53195.75;;;-144.47;96.95
64076;BME280;50327;51.328;12.324;2023-01-27T03:51:22;53191.78;;;-144.47;97.11
64076;BME280;50327;51.328;12.324;2023-01-27T03:53:48;53229.50;;;-144.47;97.21
64076;BME280;50327;51.328;12.324;2023-01-27T03:56:15;53199.72;;;-144.47;97.61
64076;BME280;50327;51.328;12.324;2023-01-27T03:58:41;53181.84;;;-144.47;97.43
64076;BME280;50327;51.328;12.324;2023-01-27T04:01:20;53195.75;;;-144.47;97.67
64076;BME280;50327;51.328;12.324;2023-01-27T04:03:46;53191.78;;;-144.47;97.86
64076;BME280;50327;51.328;12.324;2023-01-27T04:06:32;53197.72;;;-144.47;97.65
64076;BME280;50327;51.328;12.324;2023-01-27T04:09:22;53213.63;;;-144.47;97.98
64076;BME280;50327;51.328;12.324;2023-01-27T04:11:48;53197.72;;;-144.47;98.35
64076;BME280;50327;51.328;12.324;2023-01-27T04:14:39;53205.66;;;-144.47;98.43
64076;BME280;50327;51.328;12.324;2023-01-27T04:17:09;53199.72;;;-144.47;98.68
64076;BME280;50327;51.328;12.324;2023-01-27T04:19:35;53189.78;;;-144.47;98.81
64076;BME280;50327;51.328;12.324;2023-01-27T04:22:01;53183.81;;;-144.47;99.02
64076;BME280;50327;51.328;12.324;2023-01-27T04:24:27;53201.69;;;-144.47;99.32
64076;BME280;50327;51.328;12.324;2023-01-27T04:26:59;53195.75;;;-144.47;99.18
64076;BME280;50327;51.328;12.324;2023-01-27T04:29:27;53211.63;;;-144.47;98.80
64076;BME280;50327;51.328;12.324;2023-01-27T04:31:53;53189.78;;;-144.47;98.82
64076;BME280;50327;51.328;12.324;2023-01-27T04:34:19;53177.88;;;-144.47;98.89
64076;BME280;50327;51.328;12.324;2023-01-27T04:36:45;53227.53;;;-144.47;98.71
64076;BME280;50327;51.328;12.324;2023-01-27T04:39:11;53161.97;;;-144.47;98.99
64076;BME280;50327;51.328;12.324;2023-01-27T04:41:37;53205.66;;;-144.47;99.52
64076;BME280;50327;51.328;12.324;2023-01-27T04:44:03;53217.59;;;-144.47;99.71
64076;BME280;50327;51.328;12.324;2023-01-27T04:46:29;53223.56;;;-144.47;100.00
64076;BME280;50327;51.328;12.324;2023-01-27T04:48:55;53217.59;;;-144.47;100.00
64076;BME280;50327;51.328;12.324;2023-01-27T04:51:20;53217.59;;;-144.47;100.00
64076;BME280;50327;51.328;12.324;2023-01-27T04:53:46;53189.78;;;-144.47;100.00
64076;BME280;50327;51.328;12.324;2023-01-27T04:56:35;53219.56;;;-144.47;100.00
64076;BME280;50327;51.328;12.324;2023-01-27T04:59:03;53201.69;;;-144.47;100.00
64076;BME280;50327;51.328;12.324;2023-01-27T05:01:28;53223.56;;;-144.47;100.00
64076;BME280;50327;51.328;12.324;2023-01-27T05:03:54;53173.88;;;-144.47;100.00
64076;BME280;50327;51.328;12.324;2023-01-27T05:06:20;53207.66;;;-144.47;100.00
64076;BME280;50327;51.328;12.324;2023-01-27T05:08:46;53195.75;;;-144.47;100.00
64076;BME280;50327;51.328;12.324;2023-01-27T05:11:12;53187.78;;;-144.47;100.00
64076;BME280;50327;51.328;12.324;2023-01-27T05:13:38;53199.72;;;-144.47;100.00
64076;BME280;50327;51.328;12.324;2023-01-27T05:16:07;53213.63;;;-144.47;100.00
64076;BME280;50327;51.328;12.324;2023-01-27T05:18:33;53207.66;;;-144.47;100.00
64076;BME280;50327;51.328;12.324;2023-01-27T05:20:59;53203.69;;;-144.47;100.00
64076;BME280;50327;51.328;12.324;2023-01-27T05:23:25;53215.59;;;-144.47;100.00
64076;BME280;50327;51.328;12.324;2023-01-27T05:28:31;53231.50;;;-144.47;100.00
64076;BME280;50327;51.328;12.324;2023-01-27T05:31:18;53217.59;;;-144.47;100.00
64076;BME280;50327;51.328;12.324;2023-01-27T05:33:44;53195.75;;;-144.47;100.00
64076;BME280;50327;51.328;12.324;2023-01-27T05:36:13;53181.84;;;-144.47;100.00
64076;BME280;50327;51.328;12.324;2023-01-27T05:38:39;53167.94;;;-144.47;100.00
64076;BME280;50327;51.328;12.324;2023-01-27T05:41:06;53193.75;;;-144.47;100.00
64076;BME280;50327;51.328;12.324;2023-01-27T05:43:34;53221.56;;;-144.47;100.00
64076;BME280;50327;51.328;12.324;2023-01-27T05:48:30;53160.00;;;-144.47;100.00
64076;BME280;50327;51.328;12.324;2023-01-27T05:50:57;53173.88;;;-144.47;100.00
64076;BME280;50327;51.328;12.324;2023-01-27T05:53:22;53193.75;;;-144.47;100.00
64076;BME280;50327;51.328;12.324;2023-01-27T05:55:50;53237.44;;;-144.47;100.00
64076;BME280;50327;51.328;12.324;2023-01-27T05:58:15;53193.75;;;-144.47;100.00
64076;BME280;50327;51.328;12.324;2023-01-27T06:00:41;53205.66;;;-144.47;100.00
64076;BME280;50327;51.328;12.324;2023-01-27T06:03:06;53221.56;;;-144.47;100.00
64076;BME280;50327;51.328;12.324;2023-01-27T06:05:32;53221.56;;;-144.47;100.00
64076;BME280;50327;51.328;12.324;2023-01-27T06:07:57;53177.88;;;-144.47;100.00
64076;BME280;50327;51.328;12.324;2023-01-27T06:10:22;53201.69;;;-144.47;100.00
64076;BME280;50327;51.328;12.324;2023-01-27T06:12:48;53181.84;;;-144.47;100.00
64076;BME280;50327;51.328;12.324;2023-01-27T06:15:13;53215.59;;;-144.47;100.00
64076;BME280;50327;51.328;12.324;2023-01-27T06:17:38;53197.72;;;-144.47;100.00
64076;BME280;50327;51.328;12.324;2023-01-27T06:20:04;53177.88;;;-144.47;100.00
64076;BME280;50327;51.328;12.324;2023-01-27T06:22:30;53173.88;;;-144.47;100.00
64076;BME280;50327;51.328;12.324;2023-01-27T06:24:55;53158.00;;;-144.47;100.00
64076;BME280;50327;51.328;12.324;2023-01-27T06:27:20;53185.81;;;-144.47;100.00
64076;BME280;50327;51.328;12.324;2023-01-27T06:29:46;53199.72;;;-144.47;100.00
64076;BME280;50327;51.328;12.324;2023-01-27T06:32:11;53193.75;;;-144.47;100.00
64076;BME280;50327;51.328;12.324;2023-01-27T06:34:36;53199.72;;;-144.47;100.00
64076;BME280;50327;51.328;12.324;2023-01-27T06:37:02;53189.78;;;-144.47;100.00
64076;BME280;50327;51.328;12.324;2023-01-27T06:39:27;53179.84;;;-144.47;100.00
64076;BME280;50327;51.328;12.324;2023-01-27T06:41:52;53191.78;;;-144.47;100.00
64076;BME280;50327;51.328;12.324;2023-01-27T06:44:18;53201.69;;;-144.47;99.61
64076;BME280;50327;51.328;12.324;2023-01-27T06:46:43;53197.72;;;-144.47;99.05
64076;BME280;50327;51.328;12.324;2023-01-27T06:49:08;53197.72;;;-144.47;98.98
64076;BME280;50327;51.328;12.324;2023-01-27T06:51:34;53185.81;;;-144.47;98.15
64076;BME280;50327;51.328;12.324;2023-01-27T06:53:59;53199.72;;;-144.47;97.87
64076;BME280;50327;51.328;12.324;2023-01-27T06:56:24;53185.81;;;-144.47;96.34
64076;BME280;50327;51.328;12.324;2023-01-27T06:58:50;53177.88;;;-144.47;96.38
64076;BME280;50327;51.328;12.324;2023-01-27T07:01:15;53195.75;;;-144.47;96.93
64076;BME280;50327;51.328;12.324;2023-01-27T07:03:41;53191.78;;;-144.47;97.08
64076;BME280;50327;51.328;12.324;2023-01-27T07:06:07;53185.81;;;-144.47;97.19
64076;BME280;50327;51.328;12.324;2023-01-27T07:08:32;53185.81;;;-144.47;97.43
64076;BME280;50327;51.328;12.324;2023-01-27T07:11:01;53173.88;;;-144.47;97.64
64076;BME280;50327;51.328;12.324;2023-01-27T07:13:27;53193.75;;;-144.47;97.76
64076;BME280;50327;51.328;12.324;2023-01-27T07:15:54;53197.72;;;-144.47;97.96
64076;BME280;50327;51.328;12.324;2023-01-27T07:18:20;53213.63;;;-144.47;97.96
64076;BME280;50327;51.328;12.324;2023-01-27T07:20:45;53187.78;;;-144.47;98.69
64076;BME280;50327;51.328;12.324;2023-01-27T07:23:11;53223.56;;;-144.47;98.66
64076;BME280;50327;51.328;12.324;2023-01-27T07:25:37;53193.75;;;-144.47;98.58
64076;BME280;50327;51.328;12.324;2023-01-27T07:28:03;53185.81;;;-144.47;99.10
64076;BME280;50327;51.328;12.324;2023-01-27T07:30:29;53177.88;;;-144.47;99.79
64076;BME280;50327;51.328;12.324;2023-01-27T07:33:02;53189.78;;;-144.47;100.00
64076;BME280;50327;51.328;12.324;2023-01-27T07:35:27;53197.72;;;-144.47;100.00
64076;BME280;50327;51.328;12.324;2023-01-27T07:37:52;53207.66;;;-144.47;100.00
64076;BME280;50327;51.328;12.324;2023-01-27T07:40:18;53193.75;;;-144.47;100.00
64076;BME280;50327;51.328;12.324;2023-01-27T07:42:43;53165.94;;;-144.47;100.00
64076;BME280;50327;51.328;12.324;2023-01-27T07:45:09;53211.63;;;-144.47;100.00
64076;BME280;50327;51.328;12.324;2023-01-27T07:47:34;53177.88;;;-144.47;100.00
64076;BME280;50327;51.328;12.324;2023-01-27T07:50:00;53209.66;;;-144.47;100.00
64076;BME280;50327;51.328;12.324;2023-01-27T07:52:25;53185.81;;;-144.47;100.00
64076;BME280;50327;51.328;12.324;2023-01-27T07:54:50;53181.84;;;-144.47;100.00
64076;BME280;50327;51.328;12.324;2023-01-27T07:57:16;53165.94;;;-144.47;100.00
64076;BME280;50327;51.328;12.324;2023-01-27T07:59:41;53163.97;;;-144.47;100.00
64076;BME280;50327;51.328;12.324;2023-01-27T08:02:09;53229.50;;;-144.47;100.00
64076;BME280;50327;51.328;12.324;2023-01-27T08:04:35;53173.88;;;-144.47;100.00
64076;BME280;50327;51.328;12.324;2023-01-27T08:07:00;53213.63;;;-144.47;100.00
64076;BME280;50327;51.328;12.324;2023-01-27T08:09:25;53169.91;;;-144.47;100.00
64076;BME280;50327;51.328;12.324;2023-01-27T08:11:51;53209.66;;;-144.47;100.00
64076;BME280;50327;51.328;12.324;2023-01-27T08:14:16;53199.72;;;-144.47;100.00
64076;BME280;50327;51.328;12.324;2023-01-27T08:16:42;53181.84;;;-144.47;100.00
64076;BME280;50327;51.328;12.324;2023-01-27T08:19:07;53161.97;;;-144.47;100.00
64076;BME280;50327;51.328;12.324;2023-01-27T08:21:32;53189.78;;;-144.47;100.00
64076;BME280;50327;51.328;12.324;2023-01-27T08:23:58;53201.69;;;-144.47;100.00
64076;BME280;50327;51.328;12.324;2023-01-27T08:26:27;53158.00;;;-144.47;100.00
64076;BME280;50327;51.328;12.324;2023-01-27T08:28:53;53193.75;;;-144.47;100.00
64076;BME280;50327;51.328;12.324;2023-01-27T08:31:19;53160.00;;;-144.47;100.00
64076;BME280;50327;51.328;12.324;2023-01-27T08:33:50;53169.91;;;-144.47;100.00
64076;BME280;50327;51.328;12.324;2023-01-27T08:36:16;53211.63;;;-144.47;100.00
64076;BME280;50327;51.328;12.324;2023-01-27T08:38:43;53185.81;;;-144.47;100.00
64076;BME280;50327;51.328;12.324;2023-01-27T08:41:15;53160.00;;;-144.47;100.00
64076;BME280;50327;51.328;12.324;2023-01-27T08:43:41;53160.00;;;-144.47;100.00
64076;BME280;50327;51.328;12.324;2023-01-27T08:46:07;53171.91;;;-144.47;100.00
64076;BME280;50327;51.328;12.324;2023-01-27T08:48:33;53167.94;;;-144.47;100.00
64076;BME280;50327;51.328;12.324;2023-01-27T08:51:00;53173.88;;;-144.47;100.00
64076;BME280;50327;51.328;12.324;2023-01-27T08:53:26;53191.78;;;-144.47;100.00
64076;BME280;50327;51.328;12.324;2023-01-27T08:55:55;53167.94;;;-144.47;100.00
64076;BME280;50327;51.328;12.324;2023-01-27T08:58:21;53171.91;;;-144.47;100.00
64076;BME280;50327;51.328;12.324;2023-01-27T09:00:46;53169.91;;;-144.47;100.00
64076;BME280;50327;51.328;12.324;2023-01-27T09:03:12;53179.84;;;-144.47;100.00
64076;BME280;50327;51.328;12.324;2023-01-27T09:05:38;53165.94;;;-144.47;100.00
64076;BME280;50327;51.328;12.324;2023-01-27T09:08:04;53167.94;;;-144.47;100.00
64076;BME280;50327;51.328;12.324;2023-01-27T09:10:30;53146.09;;;-144.47;100.00
64076;BME280;50327;51.328;12.324;2023-01-27T09:12:56;53193.75;;;-144.47;100.00
64076;BME280;50327;51.328;12.324;2023-01-27T09:15:21;53150.06;;;-144.47;100.00
64076;BME280;50327;51.328;12.324;2023-01-27T09:17:46;53160.00;;;-144.47;100.00
64076;BME280;50327;51.328;12.324;2023-01-27T09:20:12;53154.03;;;-144.47;100.00
64076;BME280;50327;51.328;12.324;2023-01-27T09:22:39;53154.03;;;-144.47;100.00
64076;BME280;50327;51.328;12.324;2023-01-27T09:25:07;53134.16;;;-144.47;100.00
64076;BME280;50327;51.328;12.324;2023-01-27T09:27:32;53146.09;;;-144.47;100.00
64076;BME280;50327;51.328;12.324;2023-01-27T09:29:58;53163.97;;;-144.47;100.00
64076;BME280;50327;51.328;12.324;2023-01-27T09:32:23;53165.94;;;-144.47;100.00
64076;BME280;50327;51.328;12.324;2023-01-27T09:34:48;53161.97;;;-144.47;100.00
64076;BME280;50327;51.328;12.324;2023-01-27T09:37:14;53187.78;;;-144.47;100.00
64076;BME280;50327;51.328;12.324;2023-01-27T09:39:50;53138.13;;;-144.47;100.00
64076;BME280;50327;51.328;12.324;2023-01-27T09:42:48;53189.78;;;-144.47;100.00
64076;BME280;50327;51.328;12.324;2023-01-27T09:45:48;53165.94;;;-144.47;100.00
64076;BME280;50327;51.328;12.324;2023-01-27T10:05:16;53183.81;;;-144.47;100.00
64076;BME280;50327;51.328;12.324;2023-01-27T10:08:27;53160.00;;;-144.47;100.00
64076;BME280;50327;51.328;12.324;2023-01-27T10:11:20;53177.88;;;-144.47;100.00
64076;BME280;50327;51.328;12.324;2023-01-27T10:16:59;53169.91;;;-144.47;100.00
64076;BME280;50327;51.328;12.324;2023-01-27T10:19:48;53199.72;;;-144.47;100.00
64076;BME280;50327;51.328;12.324;2023-01-27T10:25:26;53158.00;;;-144.47;100.00
64076;BME280;50327;51.328;12.324;2023-01-27T10:27:57;53150.06;;;-144.47;100.00
64076;BME280;50327;51.328;12.324;2023-01-27T10:30:36;53152.03;;;-144.47;100.00
64076;BME280;50327;51.328;12.324;2023-01-27T10:33:08;53154.03;;;-144.47;100.00
64076;BME280;50327;51.328;12.324;2023-01-27T10:38:53;53171.91;;;-144.47;100.00
64076;BME280;50327;51.328;12.324;2023-01-27T10:41:18;53181.84;;;-144.47;100.00
64076;BME280;50327;51.328;12.324;2023-01-27T10:46:30;53177.88;;;-144.47;100.00
64076;BME280;50327;51.328;12.324;2023-01-27T10:51:51;53161.97;;;-144.47;100.00
64076;BME280;50327;51.328;12.324;2023-01-27T10:56:55;53173.88;;;-144.47;100.00
64076;BME280;50327;51.328;12.324;2023-01-27T10:59:39;53173.88;;;-144.47;100.00
64076;BME280;50327;51.328;12.324;2023-01-27T11:02:18;53126.22;;;-144.47;100.00
64076;BME280;50327;51.328;12.324;2023-01-27T11:04:53;53148.06;;;-144.47;100.00
64076;BME280;50327;51.328;12.324;2023-01-27T11:07:21;53132.19;;;-144.47;100.00
64076;BME280;50327;51.328;12.324;2023-01-27T11:09:59;53138.13;;;-144.47;100.00
64076;BME280;50327;51.328;12.324;2023-01-27T11:12:51;53112.31;;;-144.47;100.00
64076;BME280;50327;51.328;12.324;2023-01-27T11:15:29;53177.88;;;-144.47;100.00
64076;BME280;50327;51.328;12.324;2023-01-27T11:18:16;53156.00;;;-144.47;100.00
64076;BME280;50327;51.328;12.324;2023-01-27T11:20:46;53132.19;;;-144.47;100.00
64076;BME280;50327;51.328;12.324;2023-01-27T11:28:40;53136.16;;;-144.47;100.00
64076;BME280;50327;51.328;12.324;2023-01-27T11:34:17;53146.09;;;-144.47;100.00
64076;BME280;50327;51.328;12.324;2023-01-27T11:36:46;53158.00;;;-144.47;100.00
64076;BME280;50327;51.328;12.324;2023-01-27T11:39:13;53138.13;;;-144.47;100.00
64076;BME280;50327;51.328;12.324;2023-01-27T11:41:43;53158.00;;;-144.47;100.00
64076;BME280;50327;51.328;12.324;2023-01-27T11:44:31;53156.00;;;-144.47;100.00
64076;BME280;50327;51.328;12.324;2023-01-27T11:46:58;53173.88;;;-144.47;100.00
64076;BME280;50327;51.328;12.324;2023-01-27T11:49:39;53169.91;;;-144.47;100.00
64076;BME280;50327;51.328;12.324;2023-01-27T11:52:14;53165.94;;;-144.47;100.00
64076;BME280;50327;51.328;12.324;2023-01-27T11:54:58;53154.03;;;-144.47;100.00
64076;BME280;50327;51.328;12.324;2023-01-27T11:57:29;53146.09;;;-144.47;100.00
64076;BME280;50327;51.328;12.324;2023-01-27T12:00:03;53146.09;;;-144.47;100.00
64076;BME280;50327;51.328;12.324;2023-01-27T12:02:35;53156.00;;;-144.47;100.00
64076;BME280;50327;51.328;12.324;2023-01-27T12:05:08;53108.34;;;-144.47;100.00
64076;BME280;50327;51.328;12.324;2023-01-27T12:10:25;53114.31;;;-144.47;100.00
64076;BME280;50327;51.328;12.324;2023-01-27T12:12:52;53163.97;;;-144.47;100.00
64076;BME280;50327;51.328;12.324;2023-01-27T12:15:17;53142.09;;;-144.47;100.00
64076;BME280;50327;51.328;12.324;2023-01-27T12:17:49;53165.94;;;-144.47;100.00
64076;BME280;50327;51.328;12.324;2023-01-27T12:20:35;53126.22;;;-144.47;100.00
64076;BME280;50327;51.328;12.324;2023-01-27T12:23:29;53173.88;;;-144.47;100.00
64076;BME280;50327;51.328;12.324;2023-01-27T12:26:01;53142.09;;;-144.47;100.00
64076;BME280;50327;51.328;12.324;2023-01-27T12:28:31;53146.09;;;-144.47;100.00
64076;BME280;50327;51.328;12.324;2023-01-27T12:31:07;53136.16;;;-144.47;100.00
64076;BME280;50327;51.328;12.324;2023-01-27T12:33:37;53163.97;;;-144.47;100.00
64076;BME280;50327;51.328;12.324;2023-01-27T12:36:21;53146.09;;;-144.47;100.00
64076;BME280;50327;51.328;12.324;2023-01-27T12:38:52;53144.09;;;-144.47;100.00
64076;BME280;50327;51.328;12.324;2023-01-27T12:41:21;53124.22;;;-144.47;100.00
64076;BME280;50327;51.328;12.324;2023-01-27T12:43:55;53114.31;;;-144.47;100.00
64076;BME280;50327;51.328;12.324;2023-01-27T12:46:23;53126.22;;;-144.47;100.00
64076;BME280;50327;51.328;12.324;2023-01-27T12:48:51;53169.91;;;-144.47;100.00
64076;BME280;50327;51.328;12.324;2023-01-27T12:51:36;53148.06;;;-144.47;100.00
64076;BME280;50327;51.328;12.324;2023-01-27T12:54:21;53148.06;;;-144.47;100.00
64076;BME280;50327;51.328;12.324;2023-01-27T12:56:48;53134.16;;;-144.47;100.00
64076;BME280;50327;51.328;12.324;2023-01-27T12:59:16;53122.25;;;-144.47;100.00
64076;BME280;50327;51.328;12.324;2023-01-27T13:01:43;53138.13;;;-144.47;100.00
64076;BME280;50327;51.328;12.324;2023-01-27T13:04:22;53134.16;;;-144.47;100.00
64076;BME280;50327;51.328;12.324;2023-01-27T13:06:55;53140.13;;;-144.47;100.00
64076;BME280;50327;51.328;12.324;2023-01-27T13:09:23;53146.09;;;-144.47;100.00
64076;BME280;50327;51.328;12.324;2023-01-27T13:11:51;53122.25;;;-144.47;100.00
64076;BME280;50327;51.328;12.324;2023-01-27T13:14:17;53142.09;;;-144.47;100.00
64076;BME280;50327;51.328;12.324;2023-01-27T13:16:52;53132.19;;;-144.47;100.00
64076;BME280;50327;51.328;12.324;2023-01-27T13:19:19;53152.03;;;-144.47;100.00
64076;BME280;50327;51.328;12.324;2023-01-27T13:21:49;53158.00;;;-144.47;100.00
64076;BME280;50327;51.328;12.324;2023-01-27T13:24:34;53124.22;;;-144.47;100.00
64076;BME280;50327;51.328;12.324;2023-01-27T13:27:03;53124.22;;;-144.47;100.00